createdAt,value
2022-08-19T00:00:11.025Z,18.20
2022-08-19T00:01:11.375Z,17.30
2022-08-19T00:02:11.274Z,18.80
2022-08-19T00:03:11.005Z,17.40
2022-08-19T00:04:10.994Z,17.30
2022-08-19T00:05:10.985Z,18.00
2022-08-19T00:06:11.695Z,18.20
2022-08-19T00:07:11.713Z,17.70
2022-08-19T00:08:10.985Z,18.20
2022-08-19T00:09:10.935Z,18.30
2022-08-19T00:10:10.924Z,18.00
2022-08-19T00:11:18.574Z,19.20
2022-08-19T00:12:11.907Z,18.50
2022-08-19T00:13:11.644Z,19.10
2022-08-19T00:14:10.917Z,18.80
2022-08-19T00:15:12.258Z,17.80
2022-08-19T00:16:10.854Z,19.00
2022-08-19T00:17:11.075Z,20.00
2022-08-19T00:18:11.083Z,18.00
2022-08-19T00:19:10.804Z,18.30
2022-08-19T00:20:10.814Z,18.10
2022-08-19T00:21:10.794Z,17.80
2022-08-19T00:22:10.794Z,18.20
2022-08-19T00:23:10.785Z,16.70
2022-08-19T00:24:11.510Z,18.20
2022-08-19T00:25:10.786Z,18.40
2022-08-19T00:26:11.143Z,19.00
2022-08-19T00:27:26.144Z,18.30
2022-08-19T00:28:12.659Z,17.00
2022-08-19T00:29:11.155Z,19.00
2022-08-19T00:30:11.164Z,18.40
2022-08-19T00:31:10.697Z,17.90
2022-08-19T00:32:10.732Z,18.40
2022-08-19T00:33:11.286Z,19.10
2022-08-19T00:34:10.643Z,18.90
2022-08-19T00:35:10.677Z,18.30
2022-08-19T00:36:10.618Z,17.70
2022-08-19T00:37:10.594Z,17.90
2022-08-19T00:38:10.606Z,19.10
2022-08-19T00:39:10.576Z,19.10
2022-08-19T00:40:10.979Z,18.60
2022-08-19T00:41:10.548Z,18.80
2022-08-19T00:42:10.546Z,17.80
2022-08-19T00:43:10.936Z,19.40
2022-08-19T00:44:11.045Z,18.70
2022-08-19T00:45:11.166Z,19.20
2022-08-19T00:46:11.175Z,19.10
2022-08-19T00:47:11.206Z,19.40
2022-08-19T00:48:14.691Z,19.30
2022-08-19T00:49:10.474Z,20.00
2022-08-19T00:50:10.477Z,20.50
2022-08-19T00:51:10.425Z,18.80
2022-08-19T00:52:10.497Z,19.20
2022-08-19T00:53:11.137Z,19.80
2022-08-19T00:54:10.417Z,19.70
2022-08-19T00:55:10.378Z,19.90
2022-08-19T00:56:11.245Z,20.10
2022-08-19T00:57:11.146Z,19.20
2022-08-19T00:58:10.434Z,19.80
2022-08-19T00:59:10.326Z,19.30
2022-08-19T01:00:10.351Z,19.80
2022-08-19T01:01:10.329Z,20.70
2022-08-19T01:02:10.334Z,18.70
2022-08-19T01:03:10.296Z,20.00
2022-08-19T01:04:10.290Z,19.90
2022-08-19T01:05:11.148Z,20.40
2022-08-19T01:06:10.276Z,21.10
2022-08-19T01:07:15.093Z,22.10
2022-08-19T01:08:11.996Z,21.40
2022-08-19T01:09:10.236Z,20.50
2022-08-19T01:10:10.236Z,19.20
2022-08-19T01:11:10.206Z,18.90
2022-08-19T01:12:10.188Z,18.70
2022-08-19T01:13:10.895Z,19.10
2022-08-19T01:14:10.167Z,18.80
2022-08-19T01:15:10.156Z,18.70
2022-08-19T01:16:10.158Z,18.60
2022-08-19T01:17:10.576Z,18.40
2022-08-19T01:18:10.457Z,19.50
2022-08-19T01:19:10.257Z,19.90
2022-08-19T01:20:10.107Z,18.80
2022-08-19T01:21:10.166Z,17.10
2022-08-19T01:22:14.379Z,18.90
2022-08-19T01:23:11.047Z,18.60
2022-08-19T01:24:10.718Z,17.90
2022-08-19T01:25:15.015Z,18.50
2022-08-19T01:26:11.437Z,19.10
2022-08-19T01:27:10.900Z,18.90
2022-08-19T01:28:11.315Z,19.30
2022-08-19T01:29:10.967Z,20.00
2022-08-19T01:30:10.238Z,18.70
2022-08-19T01:31:09.958Z,19.50
2022-08-19T01:32:09.956Z,20.10
2022-08-19T01:33:10.928Z,20.00
2022-08-19T01:34:09.927Z,20.30
2022-08-19T01:35:09.908Z,20.80
2022-08-19T01:36:09.909Z,19.70
2022-08-19T01:37:09.887Z,19.90
2022-08-19T01:38:09.887Z,20.70
2022-08-19T01:39:09.988Z,20.70
2022-08-19T01:40:09.883Z,20.00
2022-08-19T01:41:11.051Z,20.70
2022-08-19T01:42:09.838Z,20.70
2022-08-19T01:43:09.809Z,20.40
2022-08-19T01:44:18.919Z,19.40
2022-08-19T01:45:10.781Z,20.20
2022-08-19T01:46:10.539Z,21.50
2022-08-19T01:47:09.788Z,22.70
2022-08-19T01:48:09.767Z,21.60
2022-08-19T01:49:09.745Z,20.50
2022-08-19T01:50:09.764Z,22.20
2022-08-19T01:51:09.715Z,21.90
2022-08-19T01:52:09.708Z,21.50
2022-08-19T01:53:09.698Z,20.60
2022-08-19T01:54:09.730Z,20.00
2022-08-19T01:55:09.667Z,19.80
2022-08-19T01:56:09.675Z,20.50
2022-08-19T01:57:09.800Z,20.50
2022-08-19T01:58:09.638Z,19.70
2022-08-19T01:59:09.618Z,20.00
2022-08-19T02:00:09.718Z,19.00
2022-08-19T02:01:09.641Z,18.50
2022-08-19T02:02:09.600Z,17.70
2022-08-19T02:03:09.576Z,16.40
2022-08-19T02:04:09.570Z,18.10
2022-08-19T02:05:11.387Z,17.80
2022-08-19T02:06:09.559Z,18.50
2022-08-19T02:07:09.529Z,18.50
2022-08-19T02:08:09.879Z,18.30
2022-08-19T02:09:09.987Z,20.40
2022-08-19T02:10:12.328Z,20.10
2022-08-19T02:11:10.448Z,19.80
2022-08-19T02:12:09.502Z,20.80
2022-08-19T02:13:09.457Z,19.10
2022-08-19T02:14:09.448Z,20.20
2022-08-19T02:15:09.438Z,20.10
2022-08-19T02:16:09.437Z,18.90
2022-08-19T02:17:09.399Z,19.70
2022-08-19T02:18:09.493Z,20.50
2022-08-19T02:19:09.389Z,20.30
2022-08-19T02:20:09.386Z,20.10
2022-08-19T02:21:09.358Z,19.00
2022-08-19T02:22:09.361Z,18.50
2022-08-19T02:23:13.857Z,19.60
2022-08-19T02:24:10.346Z,18.50
2022-08-19T02:25:09.309Z,20.00
2022-08-19T02:26:09.309Z,19.90
2022-08-19T02:27:09.288Z,18.60
2022-08-19T02:28:09.301Z,18.40
2022-08-19T02:29:09.398Z,18.70
2022-08-19T02:30:10.157Z,18.80
2022-08-19T02:31:09.259Z,19.30
2022-08-19T02:32:09.240Z,18.50
2022-08-19T02:33:09.221Z,20.50
2022-08-19T02:34:09.220Z,19.10
2022-08-19T02:35:12.214Z,18.30
2022-08-19T02:36:09.198Z,20.10
2022-08-19T02:37:09.178Z,20.70
2022-08-19T02:38:09.171Z,20.60
2022-08-19T02:39:09.149Z,19.90
2022-08-19T02:40:12.758Z,19.90
2022-08-19T02:41:09.159Z,18.40
2022-08-19T02:42:09.131Z,19.80
2022-08-19T02:43:09.110Z,20.40
2022-08-19T02:44:30.847Z,20.80
2022-08-19T02:45:10.080Z,22.70
2022-08-19T02:46:09.082Z,21.30
2022-08-19T02:47:09.060Z,22.10
2022-08-19T02:48:21.150Z,21.20
2022-08-19T02:49:10.043Z,20.60
2022-08-19T02:50:09.770Z,20.80
2022-08-19T02:51:09.009Z,20.60
2022-08-19T02:52:09.014Z,20.80
2022-08-19T02:53:08.999Z,19.90
2022-08-19T02:54:08.987Z,18.90
2022-08-19T02:55:08.977Z,18.60
2022-08-19T02:56:08.959Z,19.60
2022-08-19T02:57:08.939Z,19.40
2022-08-19T02:58:08.941Z,18.50
2022-08-19T02:59:08.921Z,19.00
2022-08-19T03:00:08.921Z,19.30
2022-08-19T03:01:08.947Z,18.10
2022-08-19T03:02:08.900Z,19.60
2022-08-19T03:03:08.871Z,19.40
2022-08-19T03:04:08.891Z,19.20
2022-08-19T03:05:08.851Z,18.70
2022-08-19T03:06:08.849Z,18.90
2022-08-19T03:07:11.246Z,19.60
2022-08-19T03:08:08.829Z,19.60
2022-08-19T03:09:08.801Z,19.70
2022-08-19T03:10:08.801Z,19.30
2022-08-19T03:11:09.192Z,20.40
2022-08-19T03:12:08.800Z,20.00
2022-08-19T03:13:08.760Z,19.90
2022-08-19T03:14:08.771Z,20.50
2022-08-19T03:15:08.740Z,20.70
2022-08-19T03:16:08.750Z,19.40
2022-08-19T03:17:08.912Z,18.00
2022-08-19T03:18:08.819Z,20.20
2022-08-19T03:19:08.703Z,19.60
2022-08-19T03:20:08.699Z,19.70
2022-08-19T03:21:12.357Z,20.80
2022-08-19T03:22:08.689Z,20.30
2022-08-19T03:23:08.642Z,20.60
2022-08-19T03:24:08.684Z,20.20
2022-08-19T03:25:08.791Z,18.70
2022-08-19T03:26:15.945Z,19.40
2022-08-19T03:27:09.610Z,19.00
2022-08-19T03:28:08.630Z,19.50
2022-08-19T03:29:08.719Z,18.90
2022-08-19T03:30:08.602Z,20.00
2022-08-19T03:31:13.555Z,19.70
2022-08-19T03:32:09.571Z,19.50
2022-08-19T03:33:09.539Z,20.40
2022-08-19T03:34:08.570Z,19.80
2022-08-19T03:35:08.510Z,19.90
2022-08-19T03:36:08.523Z,19.10
2022-08-19T03:37:08.502Z,21.70
2022-08-19T03:38:08.510Z,20.80
2022-08-19T03:39:08.469Z,21.00
2022-08-19T03:40:08.572Z,21.70
2022-08-19T03:41:09.451Z,21.60
2022-08-19T03:42:38.594Z,21.00
2022-08-19T03:43:09.431Z,19.50
2022-08-19T03:44:08.430Z,19.60
2022-08-19T03:45:09.402Z,19.80
2022-08-19T03:46:08.413Z,19.60
2022-08-19T03:47:08.380Z,21.10
2022-08-19T03:48:08.389Z,17.20
2022-08-19T03:49:08.363Z,18.20
2022-08-19T03:50:08.361Z,20.20
2022-08-19T03:51:08.421Z,22.00
2022-08-19T03:52:08.546Z,23.20
2022-08-19T03:53:08.320Z,23.20
2022-08-19T03:54:08.311Z,23.30
2022-08-19T03:55:08.290Z,22.80
2022-08-19T03:56:08.292Z,21.90
2022-08-19T03:57:08.269Z,20.90
2022-08-19T03:58:08.271Z,19.40
2022-08-19T03:59:08.253Z,20.40
2022-08-19T04:00:13.499Z,19.90
2022-08-19T04:01:08.291Z,19.40
2022-08-19T04:02:08.221Z,19.30
2022-08-19T04:03:08.200Z,20.30
2022-08-19T04:04:08.201Z,19.30
2022-08-19T04:05:08.191Z,19.60
2022-08-19T04:06:08.183Z,19.80
2022-08-19T04:07:08.620Z,20.00
2022-08-19T04:08:13.303Z,19.80
2022-08-19T04:09:09.191Z,20.10
2022-08-19T04:10:08.141Z,19.80
2022-08-19T04:11:08.114Z,21.60
2022-08-19T04:12:08.153Z,21.20
2022-08-19T04:13:08.093Z,22.60
2022-08-19T04:14:08.117Z,22.00
2022-08-19T04:15:08.071Z,22.00
2022-08-19T04:16:08.071Z,23.40
2022-08-19T04:17:08.062Z,24.40
2022-08-19T04:18:08.052Z,25.60
2022-08-19T04:19:08.031Z,26.20
2022-08-19T04:20:08.013Z,25.60
2022-08-19T04:21:08.014Z,24.70
2022-08-19T04:22:08.000Z,25.40
2022-08-19T04:23:07.991Z,24.40
2022-08-19T04:24:08.162Z,22.80
2022-08-19T04:25:07.968Z,24.20
2022-08-19T04:26:07.941Z,26.40
2022-08-19T04:27:08.951Z,27.20
2022-08-19T04:28:07.921Z,26.40
2022-08-19T04:29:12.156Z,27.10
2022-08-19T04:30:07.903Z,27.60
2022-08-19T04:31:07.940Z,26.60
2022-08-19T04:32:09.778Z,27.30
2022-08-19T04:33:07.931Z,26.10
2022-08-19T04:34:07.861Z,25.50
2022-08-19T04:35:17.473Z,24.90
2022-08-19T04:36:08.832Z,24.30
2022-08-19T04:37:07.843Z,25.20
2022-08-19T04:38:07.819Z,24.50
2022-08-19T04:39:07.823Z,22.40
2022-08-19T04:40:07.858Z,22.70
2022-08-19T04:41:07.814Z,22.60
2022-08-19T04:42:07.810Z,23.00
2022-08-19T04:43:07.773Z,21.60
2022-08-19T04:44:08.562Z,21.60
2022-08-19T04:45:09.362Z,21.20
2022-08-19T04:46:08.626Z,21.10
2022-08-19T04:47:11.216Z,22.60
2022-08-19T04:48:19.618Z,23.40
2022-08-19T04:49:10.472Z,26.20
2022-08-19T04:50:07.686Z,24.60
2022-08-19T04:51:07.694Z,24.30
2022-08-19T04:52:08.414Z,24.10
2022-08-19T04:53:08.463Z,24.90
2022-08-19T04:54:07.632Z,23.30
2022-08-19T04:55:08.478Z,22.80
2022-08-19T04:56:07.611Z,24.00
2022-08-19T04:57:08.043Z,23.10
2022-08-19T04:58:08.261Z,20.90
2022-08-19T04:59:07.618Z,20.10
2022-08-19T05:00:07.592Z,20.90
2022-08-19T05:01:07.622Z,20.60
2022-08-19T05:02:07.772Z,20.90
2022-08-19T05:03:07.924Z,20.60
2022-08-19T05:04:07.532Z,19.90
2022-08-19T05:05:07.911Z,20.10
2022-08-19T05:06:07.903Z,22.10
2022-08-19T05:07:08.010Z,20.50
2022-08-19T05:08:08.163Z,20.60
2022-08-19T05:09:08.216Z,21.50
2022-08-19T05:10:07.538Z,20.70
2022-08-19T05:11:07.643Z,20.00
2022-08-19T05:12:08.196Z,21.80
2022-08-19T05:13:08.192Z,19.80
2022-08-19T05:14:08.092Z,21.00
2022-08-19T05:15:07.442Z,21.50
2022-08-19T05:16:07.383Z,21.40
2022-08-19T05:17:26.585Z,21.10
2022-08-19T05:18:08.494Z,21.90
2022-08-19T05:19:08.131Z,20.50
2022-08-19T05:20:07.374Z,21.80
2022-08-19T05:21:07.361Z,22.00
2022-08-19T05:22:07.327Z,21.10
2022-08-19T05:23:09.587Z,22.10
2022-08-19T05:24:08.316Z,23.10
2022-08-19T05:25:13.072Z,25.20
2022-08-19T05:26:08.282Z,25.60
2022-08-19T05:27:07.336Z,25.60
2022-08-19T05:28:07.253Z,25.60
2022-08-19T05:29:07.272Z,25.90
2022-08-19T05:30:07.994Z,26.20
2022-08-19T05:31:07.285Z,25.90
2022-08-19T05:32:07.211Z,25.70
2022-08-19T05:33:07.812Z,24.30
2022-08-19T05:34:07.413Z,23.80
2022-08-19T05:35:08.203Z,24.50
2022-08-19T05:36:07.947Z,21.10
2022-08-19T05:37:07.934Z,22.20
2022-08-19T05:38:07.297Z,23.00
2022-08-19T05:39:07.161Z,23.70
2022-08-19T05:40:07.157Z,25.00
2022-08-19T05:41:07.134Z,25.00
2022-08-19T05:42:07.222Z,25.50
2022-08-19T05:43:07.910Z,25.50
2022-08-19T05:44:07.843Z,25.20
2022-08-19T05:45:07.096Z,23.60
2022-08-19T05:46:07.074Z,23.90
2022-08-19T05:47:08.064Z,23.10
2022-08-19T05:48:07.783Z,22.60
2022-08-19T05:49:07.113Z,21.40
2022-08-19T05:50:07.092Z,23.70
2022-08-19T05:51:07.754Z,23.20
2022-08-19T05:52:06.994Z,23.50
2022-08-19T05:53:07.003Z,22.10
2022-08-19T05:54:07.726Z,22.20
2022-08-19T05:55:07.794Z,22.90
2022-08-19T05:56:06.973Z,21.90
2022-08-19T05:57:06.973Z,19.70
2022-08-19T05:58:07.852Z,21.70
2022-08-19T05:59:07.754Z,21.10
2022-08-19T06:00:07.655Z,21.00
2022-08-19T06:01:07.850Z,18.60
2022-08-19T06:02:07.731Z,18.40
2022-08-19T06:03:12.679Z,20.00
2022-08-19T06:04:08.184Z,19.00
2022-08-19T06:05:07.695Z,19.50
2022-08-19T06:06:07.595Z,19.40
2022-08-19T06:07:12.748Z,22.40
2022-08-19T06:08:07.804Z,21.40
2022-08-19T06:09:06.873Z,18.40
2022-08-19T06:10:06.856Z,18.60
2022-08-19T06:11:07.485Z,18.30
2022-08-19T06:12:07.214Z,19.00
2022-08-19T06:13:07.712Z,19.50
2022-08-19T06:14:06.765Z,18.40
2022-08-19T06:15:07.500Z,16.70
2022-08-19T06:16:07.663Z,17.70
2022-08-19T06:17:07.669Z,18.40
2022-08-19T06:18:06.751Z,18.60
2022-08-19T06:19:06.693Z,18.80
2022-08-19T06:20:07.539Z,17.90
2022-08-19T06:21:06.703Z,19.40
2022-08-19T06:22:06.690Z,19.30
2022-08-19T06:23:07.361Z,20.60
2022-08-19T06:24:07.410Z,18.30
2022-08-19T06:25:07.568Z,19.80
2022-08-19T06:26:07.325Z,18.70
2022-08-19T06:27:07.372Z,18.10
2022-08-19T06:28:15.534Z,17.80
2022-08-19T06:29:07.594Z,16.20
2022-08-19T06:30:07.360Z,18.30
2022-08-19T06:31:06.565Z,18.20
2022-08-19T06:32:06.634Z,19.30
2022-08-19T06:33:07.337Z,19.00
2022-08-19T06:34:07.467Z,17.80
2022-08-19T06:35:07.374Z,18.50
2022-08-19T06:36:07.303Z,18.10
2022-08-19T06:37:06.507Z,18.00
2022-08-19T06:38:07.212Z,17.50
2022-08-19T06:39:07.246Z,16.70
2022-08-19T06:40:07.489Z,15.30
2022-08-19T06:41:07.634Z,12.20
2022-08-19T06:42:07.214Z,15.50
2022-08-19T06:43:09.341Z,17.60
2022-08-19T06:44:06.426Z,17.90
2022-08-19T06:45:09.204Z,18.80
2022-08-19T06:46:06.435Z,17.60
2022-08-19T06:47:09.625Z,18.80
2022-08-19T06:48:07.383Z,19.10
2022-08-19T06:49:07.312Z,19.60
2022-08-19T06:50:06.336Z,19.40
2022-08-19T06:51:08.599Z,19.20
2022-08-19T06:52:07.146Z,18.80
2022-08-19T06:53:07.061Z,23.60
2022-08-19T06:54:07.217Z,19.50
2022-08-19T06:55:08.024Z,19.70
2022-08-19T06:56:07.178Z,19.70
2022-08-19T06:57:06.277Z,19.10
2022-08-19T06:58:07.076Z,19.00
2022-08-19T06:59:06.247Z,16.90
2022-08-19T07:00:09.712Z,18.60
2022-08-19T07:01:09.237Z,18.60
2022-08-19T07:02:06.259Z,17.90
2022-08-19T07:03:08.714Z,19.30
2022-08-19T07:04:06.887Z,17.20
2022-08-19T07:05:06.712Z,17.40
2022-08-19T07:06:09.621Z,19.30
2022-08-19T07:07:12.522Z,18.40
2022-08-19T07:08:08.046Z,16.30
2022-08-19T07:09:06.927Z,18.20
2022-08-19T07:10:07.841Z,17.80
2022-08-19T07:11:09.232Z,17.20
2022-08-19T07:12:07.050Z,18.80
2022-08-19T07:13:06.117Z,18.00
2022-08-19T07:14:06.417Z,17.90
2022-08-19T07:15:06.865Z,17.30
2022-08-19T07:16:06.785Z,16.10
2022-08-19T07:17:06.788Z,16.20
2022-08-19T07:18:06.827Z,13.70
2022-08-19T07:19:12.972Z,14.30
2022-08-19T07:20:09.986Z,16.30
2022-08-19T07:21:06.056Z,15.40
2022-08-19T07:22:06.160Z,16.30
2022-08-19T07:23:07.146Z,16.40
2022-08-19T07:24:07.216Z,16.70
2022-08-19T07:25:05.964Z,16.20
2022-08-19T07:26:06.833Z,16.00
2022-08-19T07:27:06.761Z,14.30
2022-08-19T07:28:07.676Z,13.60
2022-08-19T07:29:06.918Z,15.70
2022-08-19T07:30:06.708Z,15.50
2022-08-19T07:31:06.605Z,15.30
2022-08-19T07:32:06.767Z,14.90
2022-08-19T07:33:07.689Z,13.50
2022-08-19T07:34:05.870Z,14.90
2022-08-19T07:35:05.916Z,12.60
2022-08-19T07:36:06.637Z,14.20
2022-08-19T07:37:05.848Z,14.00
2022-08-19T07:38:05.811Z,13.30
2022-08-19T07:39:06.609Z,12.60
2022-08-19T07:40:06.547Z,12.30
2022-08-19T07:41:06.530Z,12.80
2022-08-19T07:42:06.569Z,12.90
2022-08-19T07:43:06.483Z,12.00
2022-08-19T07:44:06.501Z,11.60
2022-08-19T07:45:05.738Z,10.60
2022-08-19T07:46:05.786Z,9.80
2022-08-19T07:47:06.604Z,9.20
2022-08-19T07:48:06.539Z,11.80
2022-08-19T07:49:05.846Z,11.20
2022-08-19T07:50:06.431Z,11.90
2022-08-19T07:51:06.346Z,10.40
2022-08-19T07:52:06.381Z,9.70
2022-08-19T07:53:05.650Z,7.80
2022-08-19T07:54:06.447Z,10.90
2022-08-19T07:55:06.363Z,9.50
2022-08-19T07:56:06.795Z,11.60
2022-08-19T07:57:06.287Z,11.00
2022-08-19T07:58:06.330Z,10.80
2022-08-19T07:59:06.495Z,12.10
2022-08-19T08:00:05.547Z,11.30
2022-08-19T08:01:06.291Z,9.40
2022-08-19T08:02:05.598Z,7.90
2022-08-19T08:03:05.524Z,9.80
2022-08-19T08:04:06.274Z,12.50
2022-08-19T08:05:05.508Z,9.10
2022-08-19T08:06:06.321Z,15.70
2022-08-19T08:07:05.490Z,12.60
2022-08-19T08:08:05.461Z,9.60
2022-08-19T08:09:05.624Z,8.30
2022-08-19T08:10:05.481Z,11.00
2022-08-19T08:11:07.619Z,14.10
2022-08-19T08:12:33.066Z,14.00
2022-08-19T08:13:09.953Z,13.00
2022-08-19T08:14:05.522Z,13.30
2022-08-19T08:15:08.273Z,12.00
2022-08-19T08:16:05.363Z,11.50
2022-08-19T08:17:11.017Z,12.70
2022-08-19T08:18:05.333Z,13.50
2022-08-19T08:19:14.750Z,14.40
2022-08-19T08:20:07.132Z,14.40
2022-08-19T08:21:05.353Z,11.60
2022-08-19T08:22:05.292Z,11.20
2022-08-19T08:23:05.755Z,14.20
2022-08-19T08:24:05.283Z,13.70
2022-08-19T08:25:05.284Z,10.40
2022-08-19T08:26:06.058Z,8.60
2022-08-19T08:27:11.283Z,10.40
2022-08-19T08:28:06.298Z,9.20
2022-08-19T08:29:12.276Z,9.10
2022-08-19T08:30:06.214Z,11.70
2022-08-19T08:31:09.771Z,11.50
2022-08-19T08:32:14.800Z,12.40
2022-08-19T08:33:06.255Z,12.60
2022-08-19T08:34:05.613Z,10.40
2022-08-19T08:35:05.414Z,9.60
2022-08-19T08:36:05.326Z,12.30
2022-08-19T08:37:05.904Z,10.60
2022-08-19T08:38:06.063Z,11.40
2022-08-19T08:39:05.344Z,11.70
2022-08-19T08:40:05.666Z,13.80
2022-08-19T08:41:05.254Z,12.20
2022-08-19T08:42:09.903Z,8.20
2022-08-19T08:43:06.887Z,13.20
2022-08-19T08:44:05.163Z,8.60
2022-08-19T08:45:05.076Z,12.40
2022-08-19T08:46:05.298Z,11.20
2022-08-19T08:47:05.025Z,10.20
2022-08-19T08:48:05.866Z,11.20
2022-08-19T08:49:06.794Z,11.90
2022-08-19T08:50:05.004Z,8.80
2022-08-19T08:51:04.984Z,11.20
2022-08-19T08:52:05.036Z,12.40
2022-08-19T08:53:04.965Z,9.10
2022-08-19T08:54:05.807Z,10.50
2022-08-19T08:55:10.050Z,10.20
2022-08-19T08:56:04.969Z,8.90
2022-08-19T08:57:04.915Z,9.70
2022-08-19T08:58:05.693Z,7.30
2022-08-19T08:59:04.965Z,9.50
2022-08-19T09:00:04.910Z,8.40
2022-08-19T09:01:04.883Z,8.20
2022-08-19T09:02:04.986Z,8.80
2022-08-19T09:03:04.837Z,9.40
2022-08-19T09:04:05.009Z,8.20
2022-08-19T09:05:04.805Z,7.70
2022-08-19T09:06:04.817Z,7.50
2022-08-19T09:07:18.102Z,8.80
2022-08-19T09:08:06.157Z,6.20
2022-08-19T09:09:11.969Z,7.60
2022-08-19T09:10:06.568Z,9.20
2022-08-19T09:11:05.430Z,7.40
2022-08-19T09:12:04.761Z,6.40
2022-08-19T09:13:09.381Z,7.10
2022-08-19T09:14:06.449Z,6.20
2022-08-19T09:15:04.796Z,7.20
2022-08-19T09:16:04.897Z,8.40
2022-08-19T09:17:04.887Z,8.20
2022-08-19T09:18:06.987Z,6.80
2022-08-19T09:19:06.427Z,8.00
2022-08-19T09:20:04.697Z,8.00
2022-08-19T09:21:04.907Z,6.60
2022-08-19T09:22:05.177Z,6.70
2022-08-19T09:23:04.602Z,8.20
2022-08-19T09:24:04.635Z,6.70
2022-08-19T09:25:04.600Z,5.60
2022-08-19T09:26:05.048Z,6.60
2022-08-19T09:27:18.260Z,6.60
2022-08-19T09:28:15.029Z,5.80
2022-08-19T09:29:05.617Z,7.70
2022-08-19T09:30:04.569Z,7.20
2022-08-19T09:31:04.518Z,6.30
2022-08-19T09:32:05.341Z,6.90
2022-08-19T09:33:06.271Z,7.00
2022-08-19T09:34:05.909Z,6.70
2022-08-19T09:35:04.476Z,5.20
2022-08-19T09:36:04.467Z,7.80
2022-08-19T09:37:04.450Z,6.20
2022-08-19T09:38:04.477Z,5.70
2022-08-19T09:39:04.441Z,6.30
2022-08-19T09:40:06.314Z,5.00
2022-08-19T09:41:04.420Z,6.10
2022-08-19T09:42:04.402Z,6.70
2022-08-19T09:43:09.865Z,4.80
2022-08-19T09:44:05.390Z,5.70
2022-08-19T09:45:05.033Z,5.30
2022-08-19T09:46:04.372Z,4.80
2022-08-19T09:47:04.331Z,5.20
2022-08-19T09:48:04.352Z,5.60
2022-08-19T09:49:06.433Z,5.30
2022-08-19T09:50:04.321Z,5.00
2022-08-19T09:51:04.322Z,4.50
2022-08-19T09:52:05.102Z,4.20
2022-08-19T09:53:04.453Z,4.50
2022-08-19T09:54:04.728Z,4.40
2022-08-19T09:55:07.315Z,4.10
2022-08-19T09:56:04.534Z,5.00
2022-08-19T09:57:04.721Z,4.30
2022-08-19T09:58:04.311Z,3.70
2022-08-19T09:59:04.572Z,4.40
2022-08-19T10:00:05.113Z,4.00
2022-08-19T10:01:04.320Z,5.30
2022-08-19T10:02:11.181Z,6.00
2022-08-19T10:03:05.192Z,5.20
2022-08-19T10:04:08.988Z,5.00
2022-08-19T10:05:05.308Z,5.00
2022-08-19T10:06:04.143Z,6.30
2022-08-19T10:07:04.167Z,5.40
2022-08-19T10:08:04.577Z,5.60
2022-08-19T10:09:05.339Z,5.90
2022-08-19T10:10:04.093Z,5.40
2022-08-19T10:11:28.245Z,4.60
2022-08-19T10:12:06.049Z,4.60
2022-08-19T10:13:04.464Z,5.20
2022-08-19T10:14:04.339Z,4.60
2022-08-19T10:15:04.024Z,4.20
2022-08-19T10:16:04.254Z,4.20
2022-08-19T10:17:04.635Z,4.00
2022-08-19T10:18:05.965Z,3.30
2022-08-19T10:19:03.984Z,3.60
2022-08-19T10:20:04.024Z,4.10
2022-08-19T10:21:03.974Z,4.00
2022-08-19T10:22:03.965Z,3.70
2022-08-19T10:23:03.935Z,3.70
2022-08-19T10:24:03.945Z,3.60
2022-08-19T10:25:03.916Z,3.50
2022-08-19T10:26:03.925Z,4.50
2022-08-19T10:27:04.679Z,4.60
2022-08-19T10:28:03.925Z,3.80
2022-08-19T10:29:03.876Z,3.80
2022-08-19T10:30:03.887Z,4.30
2022-08-19T10:31:03.845Z,4.50
2022-08-19T10:32:03.857Z,4.00
2022-08-19T10:33:08.503Z,4.50
2022-08-19T10:34:04.837Z,4.40
2022-08-19T10:35:06.039Z,4.30
2022-08-19T10:36:03.808Z,4.00
2022-08-19T10:37:03.776Z,4.40
2022-08-19T10:38:04.458Z,3.90
2022-08-19T10:39:03.787Z,4.00
2022-08-19T10:40:03.817Z,6.40
2022-08-19T10:41:03.739Z,5.10
2022-08-19T10:42:03.753Z,5.40
2022-08-19T10:43:03.718Z,4.20
2022-08-19T10:44:04.382Z,5.70
2022-08-19T10:45:04.813Z,5.20
2022-08-19T10:46:03.706Z,4.10
2022-08-19T10:47:03.703Z,4.80
2022-08-19T10:48:04.696Z,4.90
2022-08-19T10:49:03.666Z,5.20
2022-08-19T10:50:03.658Z,4.50
2022-08-19T10:51:03.672Z,4.30
2022-08-19T10:52:03.638Z,4.00
2022-08-19T10:53:03.631Z,4.20
2022-08-19T10:54:06.842Z,4.80
2022-08-19T10:55:05.248Z,3.40
2022-08-19T10:56:03.589Z,4.30
2022-08-19T10:57:03.560Z,4.50
2022-08-19T10:58:03.591Z,4.30
2022-08-19T10:59:03.530Z,4.60
2022-08-19T11:00:03.571Z,4.60
2022-08-19T11:01:03.609Z,4.20
2022-08-19T11:02:03.601Z,3.90
2022-08-19T11:03:03.501Z,4.30
2022-08-19T11:04:03.539Z,4.00
2022-08-19T11:05:05.137Z,3.60
2022-08-19T11:06:04.473Z,3.50
2022-08-19T11:07:03.460Z,4.00
2022-08-19T11:08:03.493Z,4.70
2022-08-19T11:09:04.431Z,5.10
2022-08-19T11:10:03.449Z,4.30
2022-08-19T11:11:03.411Z,5.20
2022-08-19T11:12:04.901Z,4.60
2022-08-19T11:13:03.413Z,4.80
2022-08-19T11:14:03.391Z,5.60
2022-08-19T11:15:03.697Z,4.40
2022-08-19T11:16:07.341Z,3.90
2022-08-19T11:17:03.942Z,4.20
2022-08-19T11:18:03.362Z,5.30
2022-08-19T11:19:03.342Z,4.20
2022-08-19T11:20:03.382Z,4.80
2022-08-19T11:21:03.313Z,3.90
2022-08-19T11:22:04.153Z,5.40
2022-08-19T11:23:03.273Z,4.80
2022-08-19T11:24:03.297Z,4.20
2022-08-19T11:25:03.272Z,4.70
2022-08-19T11:26:03.254Z,4.20
2022-08-19T11:27:03.262Z,4.20
2022-08-19T11:28:03.243Z,4.60
2022-08-19T11:29:03.211Z,4.00
2022-08-19T11:30:03.225Z,4.00
2022-08-19T11:31:03.187Z,4.60
2022-08-19T11:32:03.195Z,4.50
2022-08-19T11:33:03.234Z,4.50
2022-08-19T11:34:03.164Z,4.00
2022-08-19T11:35:03.150Z,4.40
2022-08-19T11:36:03.154Z,4.30
2022-08-19T11:37:03.138Z,4.10
2022-08-19T11:38:05.480Z,3.50
2022-08-19T11:39:04.094Z,3.80
2022-08-19T11:40:03.158Z,3.40
2022-08-19T11:41:03.172Z,3.30
2022-08-19T11:42:03.880Z,3.60
2022-08-19T11:43:03.614Z,3.60
2022-08-19T11:44:03.736Z,3.80
2022-08-19T11:45:03.035Z,3.90
2022-08-19T11:46:03.036Z,3.90
2022-08-19T11:47:08.709Z,3.90
2022-08-19T11:48:04.034Z,4.70
2022-08-19T11:49:02.996Z,4.30
2022-08-19T11:50:02.997Z,4.20
2022-08-19T11:51:03.000Z,3.80
2022-08-19T11:52:02.978Z,3.90
2022-08-19T11:53:02.957Z,4.10
2022-08-19T11:54:02.958Z,3.90
2022-08-19T11:55:03.227Z,3.70
2022-08-19T11:56:02.927Z,4.00
2022-08-19T11:57:02.908Z,3.70
2022-08-19T11:58:02.917Z,4.40
2022-08-19T11:59:02.887Z,3.60
2022-08-19T12:00:03.037Z,3.60
2022-08-19T12:01:02.867Z,3.80
2022-08-19T12:02:02.890Z,3.70
2022-08-19T12:03:02.875Z,3.90
2022-08-19T12:04:02.973Z,4.00
2022-08-19T12:05:02.826Z,4.40
2022-08-19T12:06:03.620Z,4.40
2022-08-19T12:07:02.829Z,3.80
2022-08-19T12:08:02.809Z,4.20
2022-08-19T12:09:02.769Z,4.30
2022-08-19T12:10:02.787Z,3.70
2022-08-19T12:11:03.530Z,3.50
2022-08-19T12:12:03.199Z,4.10
2022-08-19T12:13:02.760Z,4.10
2022-08-19T12:14:02.737Z,4.10
2022-08-19T12:15:02.733Z,4.10
2022-08-19T12:16:03.585Z,3.70
2022-08-19T12:17:03.388Z,4.30
2022-08-19T12:18:02.709Z,4.10
2022-08-19T12:19:02.671Z,4.30
2022-08-19T12:20:02.670Z,4.00
2022-08-19T12:21:02.646Z,4.10
2022-08-19T12:22:03.503Z,4.00
2022-08-19T12:23:02.692Z,4.30
2022-08-19T12:24:02.659Z,4.00
2022-08-19T12:25:02.602Z,3.90
2022-08-19T12:26:02.591Z,4.30
2022-08-19T12:27:03.202Z,4.10
2022-08-19T12:28:03.074Z,4.00
2022-08-19T12:29:02.592Z,4.00
2022-08-19T12:30:02.581Z,3.80
2022-08-19T12:31:02.561Z,3.90
2022-08-19T12:32:03.848Z,4.40
2022-08-19T12:33:02.515Z,4.30
2022-08-19T12:34:02.531Z,4.70
2022-08-19T12:35:02.526Z,5.20
2022-08-19T12:36:02.503Z,4.40
2022-08-19T12:37:03.201Z,4.20
2022-08-19T12:38:02.678Z,4.40
2022-08-19T12:39:02.455Z,4.20
2022-08-19T12:40:02.562Z,4.40
2022-08-19T12:41:02.436Z,4.20
2022-08-19T12:42:02.876Z,4.40
2022-08-19T12:43:02.443Z,3.90
2022-08-19T12:44:02.404Z,3.70
2022-08-19T12:45:02.530Z,4.10
2022-08-19T12:46:02.408Z,3.70
2022-08-19T12:47:02.567Z,3.50
2022-08-19T12:48:02.449Z,3.50
2022-08-19T12:49:05.146Z,4.10
2022-08-19T12:50:06.797Z,3.30
2022-08-19T12:51:02.322Z,3.90
2022-08-19T12:52:02.317Z,3.80
2022-08-19T12:53:02.314Z,3.70
2022-08-19T12:54:02.296Z,3.50
2022-08-19T12:55:02.313Z,3.10
2022-08-19T12:56:02.266Z,3.30
2022-08-19T12:57:02.295Z,2.80
2022-08-19T12:58:02.315Z,2.90
2022-08-19T12:59:02.284Z,3.30
2022-08-19T13:00:04.993Z,3.20
2022-08-19T13:01:02.635Z,3.60